Harvey, West Virginia
Current Conditions -  °F | °C
As of 7:51 PM on Wednesday 22 Oct 2014 (Local Time) from KBKW Reporting Station
Haze Haze  
Wind Chill: 37°   Ceiling: 800
Heat Index: 43°   Visibility: 6mi
Dew Point: 41°   Wind: 10mph
Humidity: 93%   Direction: 310°NW
Pressure: 30.17"   Gusts: NA
Location:  37.9785°N, 81.1005°W
Report Text: KBKW 222351Z AUTO 31009KT 6SM BR OVC008 06/05 A3017 RMK AO2 CIG 005V012 SLP226 60002 T00610050 10067 20061 53002 TSNO
Loading
Personal Weather Stations






























Interactive Weather Map
Tropical Storm Tracking
New forecast layout! Learn more

10-Day Weather Forecast

Advertisements
Track Severe Weather on mobile